sensor_id;sensor_type;location;lat;lon;timestamp;P1;durP1;ratioP1;P2;durP2;ratioP2
55112;SDS011;41006;50.920;3.456;2023-03-01T00:00:19;16.40;;;11.30;;
55112;SDS011;41006;50.920;3.456;2023-03-01T00:00:49;15.70;;;11.95;;
55112;SDS011;41006;50.920;3.456;2023-03-01T00:01:25;16.95;;;11.85;;
55112;SDS011;41006;50.920;3.456;2023-03-01T00:01:58;12.57;;;10.98;;
55112;SDS011;41006;50.920;3.456;2023-03-01T00:02:33;13.63;;;10.85;;
55112;SDS011;41006;50.920;3.456;2023-03-01T00:03:06;12.95;;;10.98;;
55112;SDS011;41006;50.920;3.456;2023-03-01T00:03:36;15.38;;;11.45;;
55112;SDS011;41006;50.920;3.456;2023-03-01T00:04:06;14.77;;;10.07;;
55112;SDS011;41006;50.920;3.456;2023-03-01T00:04:39;15.30;;;10.98;;
55112;SDS011;41006;50.920;3.456;2023-03-01T00:05:10;14.90;;;10.90;;
55112;SDS011;41006;50.920;3.456;2023-03-01T00:05:45;14.88;;;11.45;;
55112;SDS011;41006;50.920;3.456;2023-03-01T00:06:18;15.95;;;10.85;;
55112;SDS011;41006;50.920;3.456;2023-03-01T00:06:49;13.80;;;10.48;;
55112;SDS011;41006;50.920;3.456;2023-03-01T00:07:19;16.65;;;9.75;;
55112;SDS011;41006;50.920;3.456;2023-03-01T00:07:52;14.43;;;11.07;;
55112;SDS011;41006;50.920;3.456;2023-03-01T00:08:23;13.02;;;10.27;;
55112;SDS011;41006;50.920;3.456;2023-03-01T00:08:55;13.40;;;10.07;;
55112;SDS011;41006;50.920;3.456;2023-03-01T00:09:26;14.38;;;10.95;;
55112;SDS011;41006;50.920;3.456;2023-03-01T00:09:56;13.80;;;10.88;;
55112;SDS011;41006;50.920;3.456;2023-03-01T00:10:26;16.10;;;10.90;;
55112;SDS011;41006;50.920;3.456;2023-03-01T00:11:07;16.30;;;11.15;;
55112;SDS011;41006;50.920;3.456;2023-03-01T00:11:40;13.68;;;10.18;;
55112;SDS011;41006;50.920;3.456;2023-03-01T00:12:10;14.30;;;10.75;;
55112;SDS011;41006;50.920;3.456;2023-03-01T00:12:41;14.63;;;10.82;;
55112;SDS011;41006;50.920;3.456;2023-03-01T00:13:13;14.27;;;10.13;;
55112;SDS011;41006;50.920;3.456;2023-03-01T00:13:46;14.75;;;10.95;;
55112;SDS011;41006;50.920;3.456;2023-03-01T00:14:18;15.52;;;11.63;;
55112;SDS011;41006;50.920;3.456;2023-03-01T00:14:48;15.10;;;10.90;;
55112;SDS011;41006;50.920;3.456;2023-03-01T00:15:21;14.75;;;10.63;;
55112;SDS011;41006;50.920;3.456;2023-03-01T00:15:51;14.55;;;11.20;;
55112;SDS011;41006;50.920;3.456;2023-03-01T00:16:28;15.55;;;11.00;;
55112;SDS011;41006;50.920;3.456;2023-03-01T00:16:59;15.85;;;10.85;;
55112;SDS011;41006;50.920;3.456;2023-03-01T00:17:29;16.77;;;10.35;;
55112;SDS011;41006;50.920;3.456;2023-03-01T00:18:00;15.63;;;11.15;;
55112;SDS011;41006;50.920;3.456;2023-03-01T00:18:30;14.63;;;11.45;;
55112;SDS011;41006;50.920;3.456;2023-03-01T00:19:03;15.50;;;12.15;;
55112;SDS011;41006;50.920;3.456;2023-03-01T00:19:33;18.17;;;12.82;;
55112;SDS011;41006;50.920;3.456;2023-03-01T00:20:06;15.43;;;12.30;;
55112;SDS011;41006;50.920;3.456;2023-03-01T00:20:40;16.42;;;11.98;;
55112;SDS011;41006;50.920;3.456;2023-03-01T00:21:10;16.30;;;11.13;;
55112;SDS011;41006;50.920;3.456;2023-03-01T00:21:40;15.88;;;12.38;;
55112;SDS011;41006;50.920;3.456;2023-03-01T00:22:13;16.85;;;12.68;;
55112;SDS011;41006;50.920;3.456;2023-03-01T00:22:45;14.90;;;11.38;;
55112;SDS011;41006;50.920;3.456;2023-03-01T00:23:16;14.70;;;10.93;;
55112;SDS011;41006;50.920;3.456;2023-03-01T00:23:46;13.75;;;10.65;;
55112;SDS011;41006;50.920;3.456;2023-03-01T00:24:18;13.95;;;10.57;;
55112;SDS011;41006;50.920;3.456;2023-03-01T00:24:48;14.68;;;11.27;;
55112;SDS011;41006;50.920;3.456;2023-03-01T00:25:19;16.13;;;11.40;;
55112;SDS011;41006;50.920;3.456;2023-03-01T00:25:49;13.40;;;10.68;;
55112;SDS011;41006;50.920;3.456;2023-03-01T00:26:20;14.50;;;11.00;;
55112;SDS011;41006;50.920;3.456;2023-03-01T00:26:52;13.68;;;10.90;;
55112;SDS011;41006;50.920;3.456;2023-03-01T00:27:23;14.50;;;10.18;;
55112;SDS011;41006;50.920;3.456;2023-03-01T00:27:55;13.68;;;10.25;;
55112;SDS011;41006;50.920;3.456;2023-03-01T00:28:29;14.60;;;11.23;;
55112;SDS011;41006;50.920;3.456;2023-03-01T00:29:01;14.23;;;10.90;;
55112;SDS011;41006;50.920;3.456;2023-03-01T00:29:34;17.15;;;10.13;;
55112;SDS011;41006;50.920;3.456;2023-03-01T00:30:05;13.00;;;10.55;;
55112;SDS011;41006;50.920;3.456;2023-03-01T00:30:35;14.23;;;10.48;;
55112;SDS011;41006;50.920;3.456;2023-03-01T00:31:06;14.77;;;11.20;;
55112;SDS011;41006;50.920;3.456;2023-03-01T00:31:39;13.30;;;10.35;;
55112;SDS011;41006;50.920;3.456;2023-03-01T00:32:12;15.05;;;10.07;;
55112;SDS011;41006;50.920;3.456;2023-03-01T00:32:42;14.23;;;10.23;;
55112;SDS011;41006;50.920;3.456;2023-03-01T00:33:13;13.55;;;10.15;;
55112;SDS011;41006;50.920;3.456;2023-03-01T00:33:43;13.65;;;10.30;;
55112;SDS011;41006;50.920;3.456;2023-03-01T00:34:14;14.18;;;10.23;;
55112;SDS011;41006;50.920;3.456;2023-03-01T00:34:44;15.13;;;10.30;;
55112;SDS011;41006;50.920;3.456;2023-03-01T00:35:24;13.38;;;9.93;;
55112;SDS011;41006;50.920;3.456;2023-03-01T00:35:54;11.05;;;9.30;;
55112;SDS011;41006;50.920;3.456;2023-03-01T00:36:31;12.23;;;8.85;;
55112;SDS011;41006;50.920;3.456;2023-03-01T00:37:03;12.63;;;9.77;;
55112;SDS011;41006;50.920;3.456;2023-03-01T00:37:35;10.95;;;9.20;;
55112;SDS011;41006;50.920;3.456;2023-03-01T00:38:05;12.50;;;9.70;;
55112;SDS011;41006;50.920;3.456;2023-03-01T00:38:38;12.13;;;10.52;;
55112;SDS011;41006;50.920;3.456;2023-03-01T00:39:13;12.77;;;10.32;;
55112;SDS011;41006;50.920;3.456;2023-03-01T00:39:43;15.75;;;10.88;;
55112;SDS011;41006;50.920;3.456;2023-03-01T00:40:14;16.70;;;10.63;;
55112;SDS011;41006;50.920;3.456;2023-03-01T00:40:46;12.25;;;10.63;;
55112;SDS011;41006;50.920;3.456;2023-03-01T00:41:16;13.02;;;9.88;;
55112;SDS011;41006;50.920;3.456;2023-03-01T00:41:47;12.73;;;10.35;;
55112;SDS011;41006;50.920;3.456;2023-03-01T00:42:17;12.60;;;9.65;;
55112;SDS011;41006;50.920;3.456;2023-03-01T00:42:47;12.07;;;9.75;;
55112;SDS011;41006;50.920;3.456;2023-03-01T00:43:18;13.00;;;10.00;;
55112;SDS011;41006;50.920;3.456;2023-03-01T00:43:49;13.50;;;10.45;;
55112;SDS011;41006;50.920;3.456;2023-03-01T00:44:19;11.90;;;9.63;;
55112;SDS011;41006;50.920;3.456;2023-03-01T00:44:49;12.48;;;9.73;;
55112;SDS011;41006;50.920;3.456;2023-03-01T00:45:20;12.55;;;9.52;;
55112;SDS011;41006;50.920;3.456;2023-03-01T00:45:50;10.70;;;9.40;;
55112;SDS011;41006;50.920;3.456;2023-03-01T00:46:21;12.10;;;9.82;;
55112;SDS011;41006;50.920;3.456;2023-03-01T00:46:54;11.70;;;9.27;;
55112;SDS011;41006;50.920;3.456;2023-03-01T00:47:24;10.95;;;9.43;;
55112;SDS011;41006;50.920;3.456;2023-03-01T00:47:55;11.88;;;9.80;;
55112;SDS011;41006;50.920;3.456;2023-03-01T00:48:25;13.85;;;9.73;;
55112;SDS011;41006;50.920;3.456;2023-03-01T00:48:58;12.70;;;9.70;;
55112;SDS011;41006;50.920;3.456;2023-03-01T00:49:28;13.60;;;9.48;;
55112;SDS011;41006;50.920;3.456;2023-03-01T00:50:01;13.50;;;9.40;;
55112;SDS011;41006;50.920;3.456;2023-03-01T00:50:31;11.07;;;9.52;;
55112;SDS011;41006;50.920;3.456;2023-03-01T00:51:05;10.68;;;9.32;;
55112;SDS011;41006;50.920;3.456;2023-03-01T00:51:38;11.00;;;8.93;;
55112;SDS011;41006;50.920;3.456;2023-03-01T00:52:11;14.00;;;9.30;;
55112;SDS011;41006;50.920;3.456;2023-03-01T00:52:41;14.70;;;9.52;;
55112;SDS011;41006;50.920;3.456;2023-03-01T00:53:11;12.68;;;9.88;;
55112;SDS011;41006;50.920;3.456;2023-03-01T00:53:42;12.88;;;9.30;;
55112;SDS011;41006;50.920;3.456;2023-03-01T00:54:12;12.40;;;9.73;;
55112;SDS011;41006;50.920;3.456;2023-03-01T00:54:46;13.43;;;9.77;;
55112;SDS011;41006;50.920;3.456;2023-03-01T00:55:16;15.68;;;9.82;;
55112;SDS011;41006;50.920;3.456;2023-03-01T00:55:46;13.02;;;10.10;;
55112;SDS011;41006;50.920;3.456;2023-03-01T00:56:17;11.55;;;9.63;;
55112;SDS011;41006;50.920;3.456;2023-03-01T00:56:47;13.38;;;9.60;;
55112;SDS011;41006;50.920;3.456;2023-03-01T00:57:18;11.55;;;9.32;;
55112;SDS011;41006;50.920;3.456;2023-03-01T00:57:48;13.57;;;10.07;;
55112;SDS011;41006;50.920;3.456;2023-03-01T00:58:20;14.70;;;10.00;;
55112;SDS011;41006;50.920;3.456;2023-03-01T00:58:51;13.07;;;10.00;;
55112;SDS011;41006;50.920;3.456;2023-03-01T00:59:21;14.38;;;10.10;;
55112;SDS011;41006;50.920;3.456;2023-03-01T00:59:51;11.73;;;9.18;;
55112;SDS011;41006;50.920;3.456;2023-03-01T01:00:22;12.85;;;9.77;;
55112;SDS011;41006;50.920;3.456;2023-03-01T01:00:57;14.30;;;10.32;;
55112;SDS011;41006;50.920;3.456;2023-03-01T01:01:28;12.40;;;10.35;;
55112;SDS011;41006;50.920;3.456;2023-03-01T01:02:01;12.93;;;9.65;;
55112;SDS011;41006;50.920;3.456;2023-03-01T01:02:32;12.80;;;10.32;;
55112;SDS011;41006;50.920;3.456;2023-03-01T01:03:02;11.93;;;9.20;;
55112;SDS011;41006;50.920;3.456;2023-03-01T01:03:32;13.85;;;10.35;;
55112;SDS011;41006;50.920;3.456;2023-03-01T01:04:07;11.95;;;9.50;;
55112;SDS011;41006;50.920;3.456;2023-03-01T01:04:38;12.38;;;10.20;;
55112;SDS011;41006;50.920;3.456;2023-03-01T01:05:11;12.95;;;11.27;;
55112;SDS011;41006;50.920;3.456;2023-03-01T01:05:44;13.68;;;9.65;;
55112;SDS011;41006;50.920;3.456;2023-03-01T01:06:19;14.10;;;11.07;;
55112;SDS011;41006;50.920;3.456;2023-03-01T01:06:50;12.25;;;10.48;;
55112;SDS011;41006;50.920;3.456;2023-03-01T01:07:20;13.18;;;11.00;;
55112;SDS011;41006;50.920;3.456;2023-03-01T01:07:53;11.93;;;9.75;;
55112;SDS011;41006;50.920;3.456;2023-03-01T01:08:23;12.35;;;10.70;;
55112;SDS011;41006;50.920;3.456;2023-03-01T01:08:55;14.90;;;10.32;;
55112;SDS011;41006;50.920;3.456;2023-03-01T01:09:28;14.18;;;11.68;;
55112;SDS011;41006;50.920;3.456;2023-03-01T01:09:58;12.60;;;10.82;;
55112;SDS011;41006;50.920;3.456;2023-03-01T01:10:29;13.50;;;11.32;;
55112;SDS011;41006;50.920;3.456;2023-03-01T01:10:59;14.30;;;11.77;;
55112;SDS011;41006;50.920;3.456;2023-03-01T01:11:31;13.10;;;10.43;;
55112;SDS011;41006;50.920;3.456;2023-03-01T01:12:05;13.07;;;10.45;;
55112;SDS011;41006;50.920;3.456;2023-03-01T01:12:38;14.13;;;11.82;;
55112;SDS011;41006;50.920;3.456;2023-03-01T01:13:08;14.70;;;11.45;;
55112;SDS011;41006;50.920;3.456;2023-03-01T01:13:39;13.05;;;11.73;;
55112;SDS011;41006;50.920;3.456;2023-03-01T01:14:09;13.60;;;11.30;;
55112;SDS011;41006;50.920;3.456;2023-03-01T01:14:42;16.50;;;11.10;;
55112;SDS011;41006;50.920;3.456;2023-03-01T01:15:13;13.38;;;11.13;;
55112;SDS011;41006;50.920;3.456;2023-03-01T01:15:46;12.07;;;10.82;;
55112;SDS011;41006;50.920;3.456;2023-03-01T01:16:17;13.60;;;11.73;;
55112;SDS011;41006;50.920;3.456;2023-03-01T01:16:47;12.52;;;11.23;;
55112;SDS011;41006;50.920;3.456;2023-03-01T01:17:18;13.00;;;11.68;;
55112;SDS011;41006;50.920;3.456;2023-03-01T01:17:48;12.70;;;11.40;;
55112;SDS011;41006;50.920;3.456;2023-03-01T01:18:18;13.48;;;11.68;;
55112;SDS011;41006;50.920;3.456;2023-03-01T01:18:49;14.25;;;11.48;;
55112;SDS011;41006;50.920;3.456;2023-03-01T01:19:19;15.95;;;12.35;;
55112;SDS011;41006;50.920;3.456;2023-03-01T01:19:49;14.93;;;12.38;;
55112;SDS011;41006;50.920;3.456;2023-03-01T01:20:20;13.02;;;11.63;;
55112;SDS011;41006;50.920;3.456;2023-03-01T01:20:50;15.48;;;12.07;;
55112;SDS011;41006;50.920;3.456;2023-03-01T01:21:25;13.90;;;12.02;;
55112;SDS011;41006;50.920;3.456;2023-03-01T01:21:55;14.30;;;12.50;;
55112;SDS011;41006;50.920;3.456;2023-03-01T01:22:29;13.95;;;12.50;;
55112;SDS011;41006;50.920;3.456;2023-03-01T01:22:59;15.45;;;12.85;;
55112;SDS011;41006;50.920;3.456;2023-03-01T01:23:29;15.18;;;13.35;;
55112;SDS011;41006;50.920;3.456;2023-03-01T01:23:59;13.18;;;11.75;;
55112;SDS011;41006;50.920;3.456;2023-03-01T01:24:32;14.15;;;12.82;;
55112;SDS011;41006;50.920;3.456;2023-03-01T01:25:05;14.50;;;12.98;;
55112;SDS011;41006;50.920;3.456;2023-03-01T01:25:35;14.52;;;12.85;;
55112;SDS011;41006;50.920;3.456;2023-03-01T01:26:07;15.13;;;13.13;;
55112;SDS011;41006;50.920;3.456;2023-03-01T01:26:38;14.45;;;12.88;;
55112;SDS011;41006;50.920;3.456;2023-03-01T01:27:08;13.73;;;12.30;;
55112;SDS011;41006;50.920;3.456;2023-03-01T01:27:41;14.32;;;12.70;;
55112;SDS011;41006;50.920;3.456;2023-03-01T01:28:14;15.98;;;13.32;;
55112;SDS011;41006;50.920;3.456;2023-03-01T01:28:47;14.50;;;13.05;;
55112;SDS011;41006;50.920;3.456;2023-03-01T01:29:17;18.10;;;13.48;;
55112;SDS011;41006;50.920;3.456;2023-03-01T01:29:47;14.30;;;12.77;;
55112;SDS011;41006;50.920;3.456;2023-03-01T01:30:18;16.73;;;13.60;;
55112;SDS011;41006;50.920;3.456;2023-03-01T01:30:50;13.65;;;12.23;;
55112;SDS011;41006;50.920;3.456;2023-03-01T01:31:21;16.33;;;13.70;;
55112;SDS011;41006;50.920;3.456;2023-03-01T01:31:53;14.73;;;13.32;;
55112;SDS011;41006;50.920;3.456;2023-03-01T01:32:28;15.18;;;13.77;;
55112;SDS011;41006;50.920;3.456;2023-03-01T01:32:58;16.08;;;13.60;;
55112;SDS011;41006;50.920;3.456;2023-03-01T01:33:28;16.45;;;13.20;;
55112;SDS011;41006;50.920;3.456;2023-03-01T01:34:02;15.70;;;13.57;;
55112;SDS011;41006;50.920;3.456;2023-03-01T01:34:32;14.77;;;13.30;;
55112;SDS011;41006;50.920;3.456;2023-03-01T01:35:05;17.17;;;14.82;;
55112;SDS011;41006;50.920;3.456;2023-03-01T01:35:35;17.77;;;13.98;;
55112;SDS011;41006;50.920;3.456;2023-03-01T01:36:06;14.95;;;13.55;;
55112;SDS011;41006;50.920;3.456;2023-03-01T01:36:39;15.70;;;13.82;;
55112;SDS011;41006;50.920;3.456;2023-03-01T01:37:09;15.82;;;14.32;;
55112;SDS011;41006;50.920;3.456;2023-03-01T01:37:39;15.98;;;14.38;;
55112;SDS011;41006;50.920;3.456;2023-03-01T01:38:09;16.88;;;13.85;;
55112;SDS011;41006;50.920;3.456;2023-03-01T01:38:40;16.45;;;14.65;;
55112;SDS011;41006;50.920;3.456;2023-03-01T01:39:12;16.33;;;14.73;;
55112;SDS011;41006;50.920;3.456;2023-03-01T01:39:45;14.95;;;13.43;;
55112;SDS011;41006;50.920;3.456;2023-03-01T01:40:18;18.00;;;14.95;;
55112;SDS011;41006;50.920;3.456;2023-03-01T01:40:50;16.60;;;14.77;;
55112;SDS011;41006;50.920;3.456;2023-03-01T01:41:21;16.33;;;14.57;;
55112;SDS011;41006;50.920;3.456;2023-03-01T01:41:51;16.67;;;14.68;;
55112;SDS011;41006;50.920;3.456;2023-03-01T01:42:21;16.90;;;15.00;;
55112;SDS011;41006;50.920;3.456;2023-03-01T01:42:52;16.73;;;15.00;;
55112;SDS011;41006;50.920;3.456;2023-03-01T01:43:26;20.88;;;15.75;;
55112;SDS011;41006;50.920;3.456;2023-03-01T01:44:39;16.70;;;15.05;;
55112;SDS011;41006;50.920;3.456;2023-03-01T01:45:59;17.52;;;15.73;;
55112;SDS011;41006;50.920;3.456;2023-03-01T01:46:31;17.52;;;15.82;;
55112;SDS011;41006;50.920;3.456;2023-03-01T01:47:10;17.35;;;15.65;;
55112;SDS011;41006;50.920;3.456;2023-03-01T01:47:43;16.88;;;15.18;;
55112;SDS011;41006;50.920;3.456;2023-03-01T01:48:14;18.83;;;16.88;;
55112;SDS011;41006;50.920;3.456;2023-03-01T01:48:48;18.77;;;16.90;;
55112;SDS011;41006;50.920;3.456;2023-03-01T01:49:53;19.15;;;17.23;;
55112;SDS011;41006;50.920;3.456;2023-03-01T01:50:24;19.52;;;17.70;;
55112;SDS011;41006;50.920;3.456;2023-03-01T01:50:59;18.77;;;17.10;;
55112;SDS011;41006;50.920;3.456;2023-03-01T01:51:31;21.10;;;19.02;;
55112;SDS011;41006;50.920;3.456;2023-03-01T01:52:12;21.85;;;19.73;;
55112;SDS011;41006;50.920;3.456;2023-03-01T01:52:43;20.77;;;18.95;;
55112;SDS011;41006;50.920;3.456;2023-03-01T01:53:15;21.10;;;19.00;;
55112;SDS011;41006;50.920;3.456;2023-03-01T01:53:47;21.30;;;19.40;;
55112;SDS011;41006;50.920;3.456;2023-03-01T01:54:24;21.48;;;19.67;;
55112;SDS011;41006;50.920;3.456;2023-03-01T01:55:00;20.42;;;18.45;;
55112;SDS011;41006;50.920;3.456;2023-03-01T01:55:34;22.33;;;20.20;;
55112;SDS011;41006;50.920;3.456;2023-03-01T01:56:08;21.33;;;19.42;;
55112;SDS011;41006;50.920;3.456;2023-03-01T01:56:42;22.38;;;20.20;;
55112;SDS011;41006;50.920;3.456;2023-03-01T01:57:18;21.05;;;19.35;;
55112;SDS011;41006;50.920;3.456;2023-03-01T01:57:54;21.52;;;19.60;;
55112;SDS011;41006;50.920;3.456;2023-03-01T01:58:26;22.58;;;20.70;;
55112;SDS011;41006;50.920;3.456;2023-03-01T01:58:58;23.08;;;20.90;;
55112;SDS011;41006;50.920;3.456;2023-03-01T01:59:30;22.92;;;20.88;;
55112;SDS011;41006;50.920;3.456;2023-03-01T02:00:09;22.73;;;20.60;;
55112;SDS011;41006;50.920;3.456;2023-03-01T02:00:42;23.55;;;21.58;;
55112;SDS011;41006;50.920;3.456;2023-03-01T02:01:13;23.00;;;21.00;;
55112;SDS011;41006;50.920;3.456;2023-03-01T02:01:43;22.02;;;20.23;;
55112;SDS011;41006;50.920;3.456;2023-03-01T02:02:19;22.27;;;19.98;;
55112;SDS011;41006;50.920;3.456;2023-03-01T02:02:53;22.23;;;20.42;;
55112;SDS011;41006;50.920;3.456;2023-03-01T02:03:27;22.30;;;20.27;;
55112;SDS011;41006;50.920;3.456;2023-03-01T02:04:03;23.38;;;21.27;;
55112;SDS011;41006;50.920;3.456;2023-03-01T02:04:36;22.65;;;20.65;;
55112;SDS011;41006;50.920;3.456;2023-03-01T02:05:10;23.10;;;21.23;;
55112;SDS011;41006;50.920;3.456;2023-03-01T02:07:23;22.98;;;20.98;;
55112;SDS011;41006;50.920;3.456;2023-03-01T02:07:53;23.52;;;21.45;;
55112;SDS011;41006;50.920;3.456;2023-03-01T02:08:25;23.40;;;21.13;;
55112;SDS011;41006;50.920;3.456;2023-03-01T02:09:05;23.00;;;21.15;;
55112;SDS011;41006;50.920;3.456;2023-03-01T02:09:36;24.90;;;22.63;;
55112;SDS011;41006;50.920;3.456;2023-03-01T02:10:07;23.27;;;21.20;;
55112;SDS011;41006;50.920;3.456;2023-03-01T02:10:37;23.60;;;21.45;;
55112;SDS011;41006;50.920;3.456;2023-03-01T02:11:10;23.38;;;21.15;;
55112;SDS011;41006;50.920;3.456;2023-03-01T02:11:44;24.00;;;21.85;;
55112;SDS011;41006;50.920;3.456;2023-03-01T02:12:15;24.30;;;22.13;;
55112;SDS011;41006;50.920;3.456;2023-03-01T02:12:51;23.75;;;21.75;;
55112;SDS011;41006;50.920;3.456;2023-03-01T02:13:21;25.67;;;23.42;;
55112;SDS011;41006;50.920;3.456;2023-03-01T02:13:52;22.88;;;21.10;;
55112;SDS011;41006;50.920;3.456;2023-03-01T02:14:25;24.92;;;22.60;;
55112;SDS011;41006;50.920;3.456;2023-03-01T02:14:56;23.98;;;22.10;;
55112;SDS011;41006;50.920;3.456;2023-03-01T02:15:26;24.65;;;22.58;;
55112;SDS011;41006;50.920;3.456;2023-03-01T02:15:56;24.75;;;22.55;;
55112;SDS011;41006;50.920;3.456;2023-03-01T02:16:30;24.45;;;22.40;;
55112;SDS011;41006;50.920;3.456;2023-03-01T02:17:00;23.13;;;21.23;;
55112;SDS011;41006;50.920;3.456;2023-03-01T02:17:33;22.98;;;21.08;;
55112;SDS011;41006;50.920;3.456;2023-03-01T02:18:06;23.33;;;21.35;;
55112;SDS011;41006;50.920;3.456;2023-03-01T02:18:38;24.77;;;22.67;;
55112;SDS011;41006;50.920;3.456;2023-03-01T02:19:13;25.20;;;23.02;;
55112;SDS011;41006;50.920;3.456;2023-03-01T02:22:17;24.70;;;22.40;;
55112;SDS011;41006;50.920;3.456;2023-03-01T02:22:51;22.73;;;20.80;;
55112;SDS011;41006;50.920;3.456;2023-03-01T02:23:22;22.77;;;20.98;;
55112;SDS011;41006;50.920;3.456;2023-03-01T02:23:53;23.15;;;21.25;;
55112;SDS011;41006;50.920;3.456;2023-03-01T02:26:56;25.08;;;22.60;;
55112;SDS011;41006;50.920;3.456;2023-03-01T02:27:30;23.17;;;21.38;;
55112;SDS011;41006;50.920;3.456;2023-03-01T02:29:03;23.08;;;21.15;;
55112;SDS011;41006;50.920;3.456;2023-03-01T02:29:35;24.05;;;21.85;;
55112;SDS011;41006;50.920;3.456;2023-03-01T02:30:06;22.88;;;21.05;;
55112;SDS011;41006;50.920;3.456;2023-03-01T02:30:36;24.05;;;22.05;;
55112;SDS011;41006;50.920;3.456;2023-03-01T02:32:14;24.02;;;21.95;;
55112;SDS011;41006;50.920;3.456;2023-03-01T02:32:45;24.83;;;22.73;;
55112;SDS011;41006;50.920;3.456;2023-03-01T02:33:15;24.83;;;22.83;;
55112;SDS011;41006;50.920;3.456;2023-03-01T02:33:48;25.23;;;23.17;;
55112;SDS011;41006;50.920;3.456;2023-03-01T02:34:19;26.13;;;23.63;;
55112;SDS011;41006;50.920;3.456;2023-03-01T02:34:54;26.25;;;23.95;;
55112;SDS011;41006;50.920;3.456;2023-03-01T02:35:25;25.77;;;23.48;;
55112;SDS011;41006;50.920;3.456;2023-03-01T02:35:55;26.42;;;24.38;;
55112;SDS011;41006;50.920;3.456;2023-03-01T02:36:28;25.45;;;23.35;;
55112;SDS011;41006;50.920;3.456;2023-03-01T02:37:08;25.42;;;23.08;;
55112;SDS011;41006;50.920;3.456;2023-03-01T02:37:44;26.15;;;23.67;;
55112;SDS011;41006;50.920;3.456;2023-03-01T02:38:17;25.45;;;23.40;;
55112;SDS011;41006;50.920;3.456;2023-03-01T02:38:48;25.60;;;23.38;;
55112;SDS011;41006;50.920;3.456;2023-03-01T02:39:22;26.15;;;23.77;;
55112;SDS011;41006;50.920;3.456;2023-03-01T02:39:59;24.55;;;22.42;;
55112;SDS011;41006;50.920;3.456;2023-03-01T02:40:33;26.00;;;23.58;;
55112;SDS011;41006;50.920;3.456;2023-03-01T02:41:04;25.35;;;23.20;;
55112;SDS011;41006;50.920;3.456;2023-03-01T02:41:36;25.33;;;23.20;;
55112;SDS011;41006;50.920;3.456;2023-03-01T02:42:11;25.70;;;23.23;;
55112;SDS011;41006;50.920;3.456;2023-03-01T02:42:45;26.67;;;24.17;;
55112;SDS011;41006;50.920;3.456;2023-03-01T02:43:17;26.20;;;23.70;;
55112;SDS011;41006;50.920;3.456;2023-03-01T02:43:49;26.65;;;24.23;;
55112;SDS011;41006;50.920;3.456;2023-03-01T02:44:20;27.25;;;24.95;;
55112;SDS011;41006;50.920;3.456;2023-03-01T02:44:51;26.38;;;24.08;;
55112;SDS011;41006;50.920;3.456;2023-03-01T02:45:21;27.27;;;24.67;;
55112;SDS011;41006;50.920;3.456;2023-03-01T02:45:57;27.70;;;25.17;;
55112;SDS011;41006;50.920;3.456;2023-03-01T02:46:30;26.67;;;24.27;;
55112;SDS011;41006;50.920;3.456;2023-03-01T02:47:01;27.98;;;25.20;;
55112;SDS011;41006;50.920;3.456;2023-03-01T02:47:32;28.30;;;25.77;;
55112;SDS011;41006;50.920;3.456;2023-03-01T02:48:05;27.38;;;24.88;;
55112;SDS011;41006;50.920;3.456;2023-03-01T02:48:42;27.55;;;24.92;;
55112;SDS011;41006;50.920;3.456;2023-03-01T02:49:17;25.92;;;23.85;;
55112;SDS011;41006;50.920;3.456;2023-03-01T02:49:48;27.23;;;24.73;;
55112;SDS011;41006;50.920;3.456;2023-03-01T02:52:47;27.48;;;24.88;;
55112;SDS011;41006;50.920;3.456;2023-03-01T02:53:23;28.60;;;26.05;;
55112;SDS011;41006;50.920;3.456;2023-03-01T02:54:49;28.15;;;25.58;;
55112;SDS011;41006;50.920;3.456;2023-03-01T02:55:23;28.83;;;26.27;;
55112;SDS011;41006;50.920;3.456;2023-03-01T02:55:54;29.80;;;26.92;;
55112;SDS011;41006;50.920;3.456;2023-03-01T02:56:24;30.15;;;27.42;;
55112;SDS011;41006;50.920;3.456;2023-03-01T02:56:57;31.50;;;28.63;;
55112;SDS011;41006;50.920;3.456;2023-03-01T02:57:31;29.92;;;27.23;;
55112;SDS011;41006;50.920;3.456;2023-03-01T02:58:02;30.00;;;27.45;;
55112;SDS011;41006;50.920;3.456;2023-03-01T02:58:32;31.50;;;28.50;;
55112;SDS011;41006;50.920;3.456;2023-03-01T02:59:12;30.52;;;27.70;;
55112;SDS011;41006;50.920;3.456;2023-03-01T02:59:43;31.65;;;28.75;;
55112;SDS011;41006;50.920;3.456;2023-03-01T03:00:17;31.02;;;28.15;;
55112;SDS011;41006;50.920;3.456;2023-03-01T03:00:51;32.28;;;29.17;;
55112;SDS011;41006;50.920;3.456;2023-03-01T03:01:23;32.03;;;29.13;;
55112;SDS011;41006;50.920;3.456;2023-03-01T03:02:07;31.40;;;28.50;;
55112;SDS011;41006;50.920;3.456;2023-03-01T03:02:37;31.60;;;28.95;;
55112;SDS011;41006;50.920;3.456;2023-03-01T03:03:10;32.17;;;29.38;;
55112;SDS011;41006;50.920;3.456;2023-03-01T03:03:43;32.70;;;29.90;;
55112;SDS011;41006;50.920;3.456;2023-03-01T03:04:14;30.90;;;28.23;;
55112;SDS011;41006;50.920;3.456;2023-03-01T03:04:48;33.05;;;30.05;;
55112;SDS011;41006;50.920;3.456;2023-03-01T03:05:19;32.70;;;29.88;;
55112;SDS011;41006;50.920;3.456;2023-03-01T03:05:52;33.55;;;30.35;;
55112;SDS011;41006;50.920;3.456;2023-03-01T03:06:22;33.33;;;30.23;;
55112;SDS011;41006;50.920;3.456;2023-03-01T03:06:55;32.85;;;29.90;;
55112;SDS011;41006;50.920;3.456;2023-03-01T03:07:25;33.30;;;29.83;;
55112;SDS011;41006;50.920;3.456;2023-03-01T03:07:58;31.95;;;29.05;;
55112;SDS011;41006;50.920;3.456;2023-03-01T03:08:32;32.10;;;29.15;;
55112;SDS011;41006;50.920;3.456;2023-03-01T03:09:03;33.40;;;30.33;;
55112;SDS011;41006;50.920;3.456;2023-03-01T03:09:33;33.15;;;29.85;;
55112;SDS011;41006;50.920;3.456;2023-03-01T03:10:06;34.10;;;30.55;;
55112;SDS011;41006;50.920;3.456;2023-03-01T03:10:38;32.45;;;29.70;;
55112;SDS011;41006;50.920;3.456;2023-03-01T03:11:09;31.90;;;29.00;;
55112;SDS011;41006;50.920;3.456;2023-03-01T03:11:44;34.78;;;31.60;;
55112;SDS011;41006;50.920;3.456;2023-03-01T03:12:14;31.67;;;28.73;;
55112;SDS011;41006;50.920;3.456;2023-03-01T03:12:48;32.05;;;29.20;;
55112;SDS011;41006;50.920;3.456;2023-03-01T03:13:19;32.55;;;29.58;;
55112;SDS011;41006;50.920;3.456;2023-03-01T03:13:52;32.67;;;29.52;;
55112;SDS011;41006;50.920;3.456;2023-03-01T03:14:22;31.38;;;28.50;;
55112;SDS011;41006;50.920;3.456;2023-03-01T03:14:53;32.33;;;29.42;;
55112;SDS011;41006;50.920;3.456;2023-03-01T03:15:26;32.47;;;29.52;;
55112;SDS011;41006;50.920;3.456;2023-03-01T03:15:57;32.55;;;29.85;;
55112;SDS011;41006;50.920;3.456;2023-03-01T03:16:27;32.15;;;29.27;;
55112;SDS011;41006;50.920;3.456;2023-03-01T03:16:59;32.88;;;29.85;;
55112;SDS011;41006;50.920;3.456;2023-03-01T03:17:29;31.92;;;29.13;;
55112;SDS011;41006;50.920;3.456;2023-03-01T03:18:00;32.45;;;29.65;;
55112;SDS011;41006;50.920;3.456;2023-03-01T03:18:30;32.42;;;29.42;;
55112;SDS011;41006;50.920;3.456;2023-03-01T03:19:00;32.40;;;29.55;;
55112;SDS011;41006;50.920;3.456;2023-03-01T03:19:34;32.78;;;29.60;;
55112;SDS011;41006;50.920;3.456;2023-03-01T03:20:05;34.30;;;31.38;;
55112;SDS011;41006;50.920;3.456;2023-03-01T03:20:36;34.53;;;31.60;;
55112;SDS011;41006;50.920;3.456;2023-03-01T03:21:08;34.10;;;31.00;;
55112;SDS011;41006;50.920;3.456;2023-03-01T03:21:40;33.05;;;30.15;;
55112;SDS011;41006;50.920;3.456;2023-03-01T03:22:11;33.17;;;30.27;;